createdAt,value
2022-12-15T00:02:18.446Z,76.00
2022-12-15T00:05:03.879Z,76.80
2022-12-15T00:07:49.272Z,82.60
2022-12-15T00:10:34.571Z,79.50
2022-12-15T00:13:19.932Z,77.00
2022-12-15T00:16:05.790Z,98.60
2022-12-15T00:18:51.431Z,87.00
2022-12-15T00:21:36.319Z,102.40
2022-12-15T00:24:21.185Z,123.50
2022-12-15T00:27:06.049Z,88.90
2022-12-15T00:29:51.092Z,82.80
2022-12-15T00:32:36.634Z,79.00
2022-12-15T00:35:22.009Z,96.90
2022-12-15T00:38:07.305Z,122.00
2022-12-15T00:40:33.724Z,116.90
2022-12-15T00:43:00.175Z,119.80
2022-12-15T00:45:46.785Z,106.00
2022-12-15T00:48:13.341Z,107.30
2022-12-15T00:50:53.412Z,97.60
2022-12-15T00:53:39.827Z,96.80
2022-12-15T00:56:24.972Z,93.20
2022-12-15T00:59:10.391Z,91.30
2022-12-15T01:01:55.477Z,93.40
2022-12-15T01:04:42.030Z,90.70
2022-12-15T01:07:27.514Z,94.20
2022-12-15T01:10:12.221Z,95.20
2022-12-15T01:12:57.377Z,88.50
2022-12-15T01:15:42.290Z,88.30
2022-12-15T01:18:27.662Z,83.30
2022-12-15T01:20:59.571Z,89.60
2022-12-15T01:23:26.854Z,89.00
2022-12-15T01:25:53.974Z,93.80
2022-12-15T01:28:21.474Z,98.20
2022-12-15T01:30:48.118Z,110.60
2022-12-15T01:33:15.781Z,115.90
2022-12-15T01:35:43.557Z,124.50
2022-12-15T01:38:11.337Z,126.10
2022-12-15T01:40:46.753Z,119.90
2022-12-15T01:43:14.928Z,118.00
2022-12-15T01:46:01.247Z,111.80
2022-12-15T01:48:33.495Z,94.50
2022-12-15T01:51:17.249Z,97.20
2022-12-15T01:54:13.720Z,89.60
2022-12-15T01:56:45.559Z,89.90
2022-12-15T01:59:18.886Z,85.90
2022-12-15T02:01:45.539Z,89.00
2022-12-15T02:04:20.520Z,93.50
2022-12-15T02:06:47.175Z,90.00
2022-12-15T02:09:14.531Z,89.40
2022-12-15T02:12:19.349Z,90.20
2022-12-15T02:15:07.953Z,85.80
2022-12-15T02:17:58.813Z,83.00
2022-12-15T02:20:34.038Z,80.50
2022-12-15T02:23:26.530Z,75.10
2022-12-15T02:26:30.768Z,76.80
2022-12-15T02:29:34.663Z,81.00
2022-12-15T02:32:10.477Z,82.90
2022-12-15T02:34:49.610Z,82.80
2022-12-15T02:37:20.229Z,84.20
2022-12-15T02:39:46.494Z,84.10
2022-12-15T02:42:13.234Z,85.00
2022-12-15T02:44:44.204Z,86.80
2022-12-15T02:47:36.683Z,82.10
2022-12-15T02:50:24.491Z,81.40
2022-12-15T02:53:18.656Z,75.50
2022-12-15T02:56:17.490Z,77.20
2022-12-15T02:59:05.702Z,76.00
2022-12-15T03:01:37.634Z,77.90
2022-12-15T03:04:07.504Z,78.40
2022-12-15T03:06:33.958Z,82.40
2022-12-15T03:09:00.297Z,85.60
2022-12-15T03:11:27.550Z,89.20
2022-12-15T03:18:15.457Z,80.90
2022-12-15T03:20:41.787Z,82.50
2022-12-15T04:21:06.720Z,79.20
2022-12-15T04:23:33.421Z,72.70
2022-12-15T04:26:18.863Z,74.50
2022-12-15T04:29:03.640Z,74.60
2022-12-15T04:31:51.566Z,73.30
2022-12-15T04:34:41.683Z,74.60
2022-12-15T04:37:30.400Z,77.80
2022-12-15T04:40:17.152Z,79.40
2022-12-15T04:43:05.092Z,82.50
2022-12-15T04:46:09.169Z,77.40
2022-12-15T04:48:54.360Z,76.00
2022-12-15T04:51:39.295Z,73.40
2022-12-15T04:54:24.327Z,77.80
2022-12-15T04:57:09.392Z,74.90
2022-12-15T04:59:54.311Z,75.10
2022-12-15T05:02:39.977Z,77.80
2022-12-15T05:05:25.944Z,78.70
2022-12-15T05:08:16.028Z,78.00
2022-12-15T05:11:01.178Z,79.30
2022-12-15T05:13:46.469Z,74.20
2022-12-15T05:16:31.691Z,73.80
2022-12-15T05:19:17.119Z,69.30
2022-12-15T05:22:02.364Z,71.20
2022-12-15T05:24:47.497Z,74.20
2022-12-15T05:27:32.575Z,76.80
2022-12-15T05:30:17.846Z,74.80
2022-12-15T05:32:44.391Z,80.50
2022-12-15T05:35:10.870Z,86.10
2022-12-15T05:37:37.939Z,85.70
2022-12-15T05:40:04.983Z,79.10
2022-12-15T05:42:31.556Z,77.50
2022-12-15T05:44:58.777Z,72.60
2022-12-15T05:47:25.712Z,78.10
2022-12-15T05:49:52.256Z,82.50
2022-12-15T05:52:18.646Z,85.80
2022-12-15T05:54:45.185Z,85.90
2022-12-15T05:57:11.613Z,82.00
2022-12-15T05:59:37.968Z,82.90
2022-12-15T06:02:05.769Z,81.70
2022-12-15T06:04:33.430Z,79.60
2022-12-15T06:07:02.104Z,76.10
2022-12-15T06:09:29.484Z,75.90
2022-12-15T06:11:56.309Z,76.90
2022-12-15T06:14:22.990Z,80.60
2022-12-15T06:16:50.369Z,83.00
2022-12-15T06:19:19.602Z,83.20
2022-12-15T06:21:46.731Z,83.70
2022-12-15T06:24:13.234Z,86.00
2022-12-15T06:26:39.801Z,88.50
2022-12-15T06:29:09.793Z,90.40
2022-12-15T06:31:37.896Z,84.70
2022-12-15T06:34:07.894Z,82.80
2022-12-15T06:36:36.009Z,85.60
2022-12-15T06:39:05.138Z,82.10
2022-12-15T06:41:32.203Z,86.90
2022-12-15T06:43:59.982Z,95.10
2022-12-15T06:46:28.853Z,95.50
2022-12-15T06:48:56.785Z,97.10
2022-12-15T06:51:24.931Z,94.80
2022-12-15T06:53:55.459Z,98.20
2022-12-15T06:56:32.458Z,100.10
2022-12-15T06:59:01.099Z,93.50
2022-12-15T07:01:29.401Z,95.20
2022-12-15T07:03:59.472Z,95.20
2022-12-15T07:06:26.865Z,102.10
2022-12-15T07:08:55.688Z,106.40
2022-12-15T07:11:22.706Z,105.20
2022-12-15T07:13:50.901Z,109.60
2022-12-15T07:16:18.521Z,108.10
2022-12-15T07:18:45.585Z,107.10
2022-12-15T07:21:12.364Z,108.40
2022-12-15T07:23:57.966Z,109.10
2022-12-15T07:26:25.469Z,108.60
2022-12-15T07:28:52.665Z,98.60
2022-12-15T07:31:19.204Z,95.80
2022-12-15T07:33:47.848Z,93.90
2022-12-15T07:36:15.936Z,94.90
2022-12-15T07:38:45.052Z,98.10
2022-12-15T07:41:23.592Z,99.50
2022-12-15T07:43:51.433Z,100.70
2022-12-15T07:46:19.410Z,105.50
2022-12-15T07:48:50.569Z,102.00
2022-12-15T07:51:21.604Z,101.30
2022-12-15T07:53:51.122Z,98.80
2022-12-15T07:56:21.921Z,103.50
2022-12-15T07:58:49.982Z,95.20
2022-12-15T08:01:17.054Z,96.20
2022-12-15T08:03:44.844Z,92.20
2022-12-15T08:06:15.627Z,97.70
2022-12-15T08:08:50.887Z,98.60
2022-12-15T08:11:21.702Z,98.80
2022-12-15T08:14:13.330Z,107.50
2022-12-15T08:16:41.089Z,108.90
2022-12-15T08:19:14.597Z,109.10
2022-12-15T08:21:43.007Z,108.40
2022-12-15T08:24:13.342Z,108.40
2022-12-15T08:26:41.991Z,103.90
2022-12-15T08:32:00.520Z,106.10
2022-12-15T08:34:27.860Z,105.50
2022-12-15T08:36:55.160Z,104.10
2022-12-15T08:39:22.009Z,106.20
2022-12-15T08:41:52.424Z,107.30
2022-12-15T08:44:19.363Z,114.60
2022-12-15T08:46:46.107Z,109.70
2022-12-15T08:49:17.899Z,113.40
2022-12-15T08:51:50.314Z,112.40
2022-12-15T08:54:21.610Z,116.90
2022-12-15T08:56:51.406Z,113.70
2022-12-15T08:59:18.708Z,115.40
2022-12-15T09:01:45.986Z,114.10
2022-12-15T09:04:13.281Z,111.30
2022-12-15T09:06:43.952Z,110.00
2022-12-15T09:09:23.657Z,113.60
2022-12-15T09:11:51.588Z,113.80
2022-12-15T09:14:21.681Z,115.60
2022-12-15T09:16:52.649Z,110.40
2022-12-15T09:19:20.663Z,108.70
2022-12-15T09:21:47.685Z,111.40
2022-12-15T09:24:24.717Z,115.10
2022-12-15T09:26:55.484Z,115.80
2022-12-15T09:29:26.765Z,117.90
2022-12-15T09:31:53.764Z,110.90
2022-12-15T09:34:20.501Z,111.30
2022-12-15T09:36:47.780Z,111.10
2022-12-15T09:39:16.540Z,110.70
2022-12-15T09:41:53.145Z,114.80
2022-12-15T09:44:23.591Z,115.80
2022-12-15T09:47:26.121Z,110.50
2022-12-15T09:49:56.198Z,110.70
2022-12-15T09:52:29.912Z,110.60
2022-12-15T09:54:58.681Z,113.90
2022-12-15T09:57:40.279Z,114.40
2022-12-15T10:00:26.031Z,101.70
2022-12-15T10:03:39.069Z,104.90
2022-12-15T10:06:21.567Z,106.90
2022-12-15T10:08:59.542Z,109.90
2022-12-15T10:12:01.588Z,109.60
2022-12-15T10:14:49.879Z,100.50
2022-12-15T10:17:25.275Z,105.10
2022-12-15T10:20:06.989Z,104.50
2022-12-15T10:22:37.104Z,107.70
2022-12-15T10:25:29.494Z,108.00
2022-12-15T10:28:13.609Z,102.50
2022-12-15T10:30:57.852Z,104.50
2022-12-15T10:33:35.514Z,103.50
2022-12-15T10:36:09.958Z,105.10
2022-12-15T10:38:42.055Z,106.20
2022-12-15T10:41:11.815Z,102.00
2022-12-15T10:43:42.321Z,95.30
2022-12-15T10:46:21.464Z,97.80
2022-12-15T10:48:55.247Z,97.40
2022-12-15T10:51:36.817Z,97.80
2022-12-15T10:54:30.550Z,97.40
2022-12-15T10:57:00.031Z,90.00
2022-12-15T10:59:38.213Z,92.10
2022-12-15T11:02:31.308Z,91.70
2022-12-15T11:05:15.346Z,92.90
2022-12-15T11:08:18.042Z,93.80
2022-12-15T11:11:16.318Z,84.90
2022-12-15T11:14:11.197Z,84.60
2022-12-15T11:16:53.638Z,80.40
2022-12-15T11:19:34.883Z,81.80
2022-12-15T11:22:16.504Z,75.00
2022-12-15T11:25:25.822Z,69.40
2022-12-15T11:27:57.182Z,70.40
2022-12-15T11:30:32.460Z,69.00
2022-12-15T11:33:00.663Z,70.40
2022-12-15T11:35:52.621Z,71.00
2022-12-15T11:38:34.148Z,62.30
2022-12-15T11:41:17.606Z,61.10
2022-12-15T11:44:11.418Z,55.80
2022-12-15T11:47:20.351Z,55.90
2022-12-15T11:50:06.417Z,59.40
2022-12-15T11:53:09.021Z,57.30
2022-12-15T11:55:46.680Z,58.50
2022-12-15T11:59:12.452Z,58.00
2022-12-15T12:02:10.620Z,59.90
2022-12-15T12:05:02.699Z,62.30
2022-12-15T12:07:50.563Z,61.00
2022-12-15T12:10:30.266Z,52.40
2022-12-15T12:13:12.859Z,51.90
2022-12-15T12:16:06.128Z,52.20
2022-12-15T12:18:46.227Z,50.70
2022-12-15T12:21:25.386Z,47.90
2022-12-15T12:24:15.085Z,47.10
2022-12-15T12:26:54.381Z,40.00
2022-12-15T12:29:37.720Z,39.70
2022-12-15T12:32:15.941Z,40.90
2022-12-15T12:35:32.291Z,42.90
2022-12-15T12:37:53.574Z,43.30
2022-12-15T12:47:53.619Z,37.00
2022-12-15T12:50:25.806Z,44.30
2022-12-15T12:52:56.920Z,44.20
2022-12-15T12:55:26.789Z,45.50
2022-12-15T12:57:54.650Z,43.00
2022-12-15T13:00:23.476Z,42.30
2022-12-15T13:02:51.543Z,44.30
2022-12-15T13:05:25.583Z,43.20
2022-12-15T13:08:17.035Z,43.60
2022-12-15T13:10:47.243Z,42.40
2022-12-15T13:13:46.477Z,42.50
2022-12-15T13:16:23.894Z,41.20
2022-12-15T13:19:06.377Z,41.60
2022-12-15T13:21:41.144Z,42.90
2022-12-15T13:24:45.847Z,43.70
2022-12-15T13:27:19.028Z,42.10
2022-12-15T13:30:14.845Z,39.80
2022-12-15T13:32:46.926Z,40.80
2022-12-15T13:35:17.145Z,39.70
2022-12-15T13:37:57.110Z,41.80
2022-12-15T13:40:34.564Z,43.10
2022-12-15T13:43:04.283Z,43.10
2022-12-15T13:45:44.316Z,40.50
2022-12-15T13:48:30.887Z,41.10
2022-12-15T13:51:18.380Z,42.60
2022-12-15T13:53:58.970Z,42.10
2022-12-15T13:56:40.269Z,44.20
2022-12-15T13:59:29.373Z,43.70
2022-12-15T14:02:05.397Z,41.40
2022-12-15T14:04:38.619Z,42.10
2022-12-15T14:07:08.188Z,42.50
2022-12-15T14:09:40.512Z,43.60
2022-12-15T14:12:12.097Z,44.00
2022-12-15T14:14:46.656Z,45.00
2022-12-15T14:17:19.907Z,45.40
2022-12-15T14:19:51.893Z,42.20
2022-12-15T14:22:29.379Z,42.00
2022-12-15T14:25:14.336Z,42.90
2022-12-15T14:27:41.414Z,41.80
2022-12-15T14:30:13.630Z,45.00
2022-12-15T14:32:42.181Z,46.40
2022-12-15T14:35:27.892Z,47.10
2022-12-15T14:38:01.862Z,45.60
2022-12-15T14:40:31.524Z,46.40
2022-12-15T14:42:58.555Z,47.50
2022-12-15T14:45:30.320Z,49.20
2022-12-15T14:51:02.168Z,47.10
2022-12-15T14:53:33.758Z,46.50
2022-12-15T14:56:33.289Z,44.60
2022-12-15T14:59:16.587Z,43.30
2022-12-15T15:02:01.255Z,43.60
2022-12-15T15:04:38.689Z,45.00
2022-12-15T15:07:15.563Z,43.90
2022-12-15T15:09:44.258Z,45.30
2022-12-15T15:12:16.942Z,46.30
2022-12-15T15:15:06.636Z,41.90
2022-12-15T15:17:37.349Z,41.90
2022-12-15T15:20:17.102Z,41.10
2022-12-15T15:22:46.766Z,41.60
2022-12-15T15:25:39.831Z,43.90
2022-12-15T15:28:19.048Z,44.70
2022-12-15T15:30:49.200Z,42.50
2022-12-15T15:33:17.244Z,42.40
2022-12-15T15:35:45.745Z,43.30
2022-12-15T15:38:31.539Z,41.90
2022-12-15T15:41:01.293Z,44.10
2022-12-15T15:43:28.379Z,45.70
2022-12-15T15:46:04.960Z,42.20
2022-12-15T15:48:37.288Z,41.70
2022-12-15T15:51:06.300Z,43.00
2022-12-15T15:53:39.319Z,44.70
2022-12-15T15:56:13.426Z,45.60
2022-12-15T15:58:40.658Z,46.20
2022-12-15T16:01:12.895Z,45.60
2022-12-15T16:03:48.881Z,44.30
2022-12-15T16:06:20.420Z,45.20
2022-12-15T16:08:51.361Z,46.10
2022-12-15T16:11:19.726Z,46.60
2022-12-15T16:13:46.789Z,51.50
2022-12-15T16:16:26.755Z,53.10
2022-12-15T16:18:53.952Z,49.60
2022-12-15T16:21:26.574Z,48.60
2022-12-15T16:23:56.315Z,48.10
2022-12-15T16:26:29.315Z,50.70
2022-12-15T16:28:56.537Z,55.70
2022-12-15T16:31:44.891Z,57.10
2022-12-15T16:34:13.332Z,53.40
2022-12-15T16:36:40.789Z,53.20
2022-12-15T16:39:29.027Z,51.10
2022-12-15T16:41:58.184Z,53.90
2022-12-15T16:44:27.084Z,51.30
2022-12-15T16:46:59.386Z,52.50
2022-12-15T16:49:39.753Z,59.20
2022-12-15T16:52:25.895Z,56.30
2022-12-15T16:55:13.625Z,54.30
2022-12-15T16:57:40.785Z,55.00
2022-12-15T17:00:23.248Z,56.10
2022-12-15T17:02:52.733Z,61.80
2022-12-15T17:05:21.203Z,58.10
2022-12-15T17:07:52.838Z,59.80
2022-12-15T17:10:25.849Z,59.20
2022-12-15T17:12:57.740Z,55.40
2022-12-15T17:15:27.815Z,54.70
2022-12-15T17:17:56.357Z,53.30
2022-12-15T17:20:30.016Z,55.40
2022-12-15T17:23:14.794Z,56.60
2022-12-15T17:26:19.630Z,54.60
2022-12-15T17:28:36.213Z,57.30
2022-12-15T17:31:03.810Z,56.40
2022-12-15T17:33:34.616Z,54.50
2022-12-15T17:36:10.108Z,56.70
2022-12-15T17:38:37.633Z,57.30
2022-12-15T17:41:04.850Z,60.40
2022-12-15T17:43:35.677Z,59.50
2022-12-15T17:46:03.084Z,59.30
2022-12-15T17:51:18.016Z,59.80
2022-12-15T17:53:46.985Z,94.50
2022-12-15T17:56:20.605Z,103.10
2022-12-15T17:58:47.628Z,89.30
2022-12-15T18:01:14.886Z,75.10
2022-12-15T18:03:42.397Z,62.80
2022-12-15T18:06:17.338Z,78.80
2022-12-15T18:08:44.945Z,68.40
2022-12-15T18:11:18.869Z,61.60
2022-12-15T18:13:46.147Z,71.90
2022-12-15T18:16:13.322Z,80.20
2022-12-15T18:18:40.235Z,85.00
2022-12-15T18:21:14.905Z,87.60
2022-12-15T18:23:43.857Z,79.40
2022-12-15T18:26:14.179Z,85.10
2022-12-15T18:28:40.987Z,88.10
2022-12-15T18:31:22.207Z,113.50
2022-12-15T18:33:50.732Z,99.10
2022-12-15T18:36:19.758Z,90.10
2022-12-15T18:38:47.839Z,109.30
2022-12-15T18:41:20.243Z,115.00
2022-12-15T18:43:48.757Z,104.00
2022-12-15T18:46:18.243Z,117.10
2022-12-15T18:48:45.571Z,128.90
2022-12-15T18:51:21.217Z,114.00
2022-12-15T18:53:50.398Z,99.20
2022-12-15T18:56:21.729Z,113.90
2022-12-15T18:58:52.001Z,112.60
2022-12-15T19:01:26.779Z,106.50
2022-12-15T19:04:00.067Z,96.10
2022-12-15T19:06:40.601Z,105.10
2022-12-15T19:09:18.638Z,102.60
2022-12-15T19:22:03.015Z,96.10
2022-12-15T19:24:56.321Z,123.00
2022-12-15T19:27:26.633Z,125.50
2022-12-15T19:29:55.473Z,116.90
2022-12-15T19:32:24.860Z,116.90
2022-12-15T19:34:54.374Z,110.80
2022-12-15T19:37:29.922Z,116.30
2022-12-15T19:40:00.774Z,138.70
2022-12-15T19:42:33.635Z,168.20
2022-12-15T19:45:18.450Z,147.90
2022-12-15T19:47:50.241Z,170.20
2022-12-15T19:50:27.357Z,155.90
2022-12-15T19:53:04.099Z,154.80
2022-12-15T19:55:35.170Z,158.60
2022-12-15T19:58:31.141Z,155.10
2022-12-15T20:01:07.239Z,158.80
2022-12-15T20:03:37.897Z,132.70
2022-12-15T20:06:28.462Z,138.30
2022-12-15T20:09:11.472Z,139.30
2022-12-15T20:11:40.173Z,144.20
2022-12-15T20:14:13.157Z,145.20
2022-12-15T20:16:49.556Z,121.10
2022-12-15T20:19:21.906Z,110.20
2022-12-15T20:21:56.586Z,134.30
2022-12-15T20:24:26.436Z,138.20
2022-12-15T20:26:56.115Z,143.10
2022-12-15T20:29:37.689Z,165.50
2022-12-15T20:32:14.766Z,176.90
2022-12-15T20:34:50.376Z,164.50
2022-12-15T20:37:27.631Z,164.30
2022-12-15T20:39:57.852Z,180.60
2022-12-15T20:42:26.602Z,183.90
2022-12-15T20:44:55.540Z,200.90
2022-12-15T20:47:26.743Z,241.10
2022-12-15T20:49:55.295Z,200.10
2022-12-15T20:52:26.756Z,218.60
2022-12-15T20:54:55.574Z,171.60
2022-12-15T20:57:24.096Z,171.90
2022-12-15T20:59:55.617Z,243.90
2022-12-15T21:02:25.657Z,229.10
2022-12-15T21:04:55.234Z,176.20
2022-12-15T21:07:23.826Z,167.90
2022-12-15T21:09:52.419Z,181.80
2022-12-15T21:12:24.662Z,207.70
2022-12-15T21:14:56.065Z,194.90
2022-12-15T21:17:26.130Z,171.10
2022-12-15T21:19:54.850Z,159.30
2022-12-15T21:22:26.372Z,145.30
2022-12-15T21:24:57.517Z,142.90
2022-12-15T21:27:25.780Z,133.10
2022-12-15T21:29:54.167Z,121.50
2022-12-15T21:32:22.835Z,129.70
2022-12-15T21:34:51.804Z,141.20
2022-12-15T21:37:29.435Z,137.50
2022-12-15T21:39:58.246Z,136.80
2022-12-15T21:42:27.150Z,119.40
2022-12-15T21:44:55.022Z,139.80
2022-12-15T21:47:47.944Z,130.90
2022-12-15T21:50:17.399Z,129.90
2022-12-15T21:52:46.568Z,121.10
2022-12-15T21:55:19.880Z,132.50
2022-12-15T21:57:49.048Z,153.60
2022-12-15T22:00:21.214Z,157.30
2022-12-15T22:02:51.216Z,206.10
2022-12-15T22:05:25.733Z,260.00
2022-12-15T22:07:53.615Z,230.40
2022-12-15T22:10:24.543Z,232.30
2022-12-15T22:12:59.265Z,241.80
2022-12-15T22:15:29.353Z,249.10
2022-12-15T22:17:58.617Z,243.80
2022-12-15T22:20:26.781Z,267.60
2022-12-15T22:22:55.795Z,272.70
2022-12-15T22:25:25.661Z,276.90
2022-12-15T22:27:54.866Z,262.10
2022-12-15T22:30:25.233Z,248.40
2022-12-15T22:32:54.000Z,223.70
2022-12-15T22:35:24.801Z,202.20
2022-12-15T22:37:53.906Z,181.70
2022-12-15T22:40:24.275Z,168.70
2022-12-15T22:42:57.138Z,157.20
2022-12-15T22:45:25.705Z,179.70
2022-12-15T22:47:55.169Z,174.30
2022-12-15T22:50:26.146Z,198.90
2022-12-15T22:52:55.191Z,212.70
2022-12-15T22:55:24.634Z,221.30
2022-12-15T22:58:06.017Z,174.40
2022-12-15T23:00:34.241Z,167.90
2022-12-15T23:03:02.954Z,160.30
2022-12-15T23:05:31.445Z,154.60
2022-12-15T23:07:59.708Z,147.90
2022-12-15T23:10:46.356Z,146.20
2022-12-15T23:13:14.159Z,149.40
2022-12-15T23:16:01.006Z,145.50
2022-12-15T23:18:29.099Z,134.80
2022-12-15T23:20:57.522Z,122.30
2022-12-15T23:23:28.279Z,130.20
2022-12-15T23:25:56.808Z,123.90
2022-12-15T23:28:24.711Z,117.30
2022-12-15T23:30:54.101Z,110.60
2022-12-15T23:33:23.530Z,107.50
2022-12-15T23:35:58.566Z,111.40
2022-12-15T23:38:27.686Z,106.50
2022-12-15T23:40:57.248Z,104.50
2022-12-15T23:43:27.671Z,103.10
2022-12-15T23:46:15.826Z,109.50
2022-12-15T23:48:44.590Z,108.40
2022-12-15T23:51:20.040Z,106.90
2022-12-15T23:53:48.449Z,110.30
2022-12-15T23:56:18.782Z,111.30
2022-12-15T23:58:49.150Z,103.10
